createdAt,value
2018-12-27T00:00:38.541Z,102312.29
2018-12-27T00:03:27.596Z,102311.45
2018-12-27T00:06:16.655Z,102311.42
2018-12-27T00:09:26.503Z,102319.95
2018-12-27T00:12:07.966Z,102316.14
2018-12-27T00:14:57.039Z,102309.78
2018-12-27T00:17:45.820Z,102313.92
2018-12-27T00:20:35.205Z,102312.02
2018-12-27T00:23:24.272Z,102316.70
2018-12-27T00:26:13.368Z,102310.78
2018-12-27T00:29:02.442Z,102305.55
2018-12-27T00:31:51.757Z,102300.02
2018-12-27T00:34:41.081Z,102301.14
2018-12-27T00:37:30.331Z,102302.52
2018-12-27T00:40:19.612Z,102303.70
2018-12-27T00:43:08.962Z,102311.01
2018-12-27T00:45:58.283Z,102306.78
2018-12-27T00:48:47.681Z,102307.62
2018-12-27T00:51:36.917Z,102308.45
2018-12-27T00:54:26.227Z,102302.98
2018-12-27T00:57:15.490Z,102291.77
2018-12-27T01:00:04.812Z,102295.92
2018-12-27T01:02:54.099Z,102289.53
2018-12-27T01:05:43.401Z,102290.81
2018-12-27T01:08:32.686Z,102288.86
2018-12-27T01:11:22.243Z,102290.45
2018-12-27T01:14:03.996Z,102277.58
2018-12-27T01:16:53.320Z,102281.75
2018-12-27T01:19:42.719Z,102276.77
2018-12-27T01:22:32.122Z,102272.88
2018-12-27T01:25:21.722Z,102277.24
2018-12-27T01:28:11.030Z,102281.47
2018-12-27T01:31:00.300Z,102276.28
2018-12-27T01:33:49.894Z,102281.80
2018-12-27T01:36:20.015Z,102288.77
2018-12-27T01:39:09.327Z,102288.74
2018-12-27T01:41:58.623Z,102282.36
2018-12-27T01:44:47.929Z,102278.09
2018-12-27T01:47:37.685Z,102274.07
2018-12-27T01:50:07.764Z,102277.20
2018-12-27T01:52:57.034Z,102270.43
2018-12-27T01:55:46.336Z,102266.41
2018-12-27T01:58:35.617Z,102264.70
2018-12-27T02:04:20.240Z,102258.50
2018-12-27T02:07:09.549Z,102259.84
2018-12-27T02:09:58.821Z,102248.25
2018-12-27T02:12:40.475Z,102244.57
2018-12-27T02:15:29.747Z,102243.69
2018-12-27T02:18:19.056Z,102236.84
2018-12-27T02:21:08.371Z,102228.92
2018-12-27T02:23:57.695Z,102241.42
2018-12-27T02:26:46.952Z,102234.64
2018-12-27T02:29:36.245Z,102233.59
2018-12-27T02:32:25.521Z,102229.91
2018-12-27T02:35:14.863Z,102231.20
2018-12-27T02:38:04.151Z,102236.23
2018-12-27T02:40:53.442Z,102229.48
2018-12-27T02:43:42.739Z,102233.20
2018-12-27T02:46:32.032Z,102230.48
2018-12-27T02:49:21.336Z,102228.73
2018-12-27T02:52:10.649Z,102228.73
2018-12-27T02:54:59.925Z,102222.00
2018-12-27T02:57:49.224Z,102218.94
2018-12-27T03:00:38.504Z,102218.05
2018-12-27T03:03:27.805Z,102218.25
2018-12-27T03:06:17.092Z,102214.14
2018-12-27T03:09:06.585Z,102212.53
2018-12-27T03:11:55.879Z,102218.48
2018-12-27T03:14:41.794Z,102212.70
2018-12-27T03:17:31.082Z,102211.48
2018-12-27T03:20:21.014Z,102206.85
2018-12-27T03:23:17.411Z,102204.78
2018-12-27T03:26:06.757Z,102195.81
2018-12-27T03:28:56.049Z,102195.52
2018-12-27T03:31:45.361Z,102195.19
2018-12-27T03:34:34.977Z,102191.50
2018-12-27T03:37:24.532Z,102195.73
2018-12-27T03:40:13.842Z,102183.74
2018-12-27T03:43:03.137Z,102177.89
2018-12-27T03:45:52.414Z,102180.53
2018-12-27T03:48:41.709Z,102165.31
2018-12-27T03:51:30.996Z,102165.27
2018-12-27T03:54:20.271Z,102166.20
2018-12-27T03:57:09.576Z,102161.70
2018-12-27T03:59:58.850Z,102158.38
2018-12-27T04:02:48.156Z,102153.77
2018-12-27T04:05:37.432Z,102159.83
2018-12-27T04:08:26.830Z,102153.50
2018-12-27T04:11:16.369Z,102153.02
2018-12-27T04:13:59.074Z,102153.77
2018-12-27T04:16:48.138Z,102151.84
2018-12-27T04:19:37.197Z,102155.98
2018-12-27T04:22:26.280Z,102152.44
2018-12-27T04:25:15.349Z,102154.65
2018-12-27T04:31:12.693Z,102146.70
2018-12-27T04:37:30.159Z,102148.20
2018-12-27T04:40:19.501Z,102143.94
2018-12-27T04:43:08.573Z,102146.73
2018-12-27T04:45:57.610Z,102142.52
2018-12-27T04:48:46.692Z,102151.76
2018-12-27T04:51:35.789Z,102150.62
2018-12-27T04:54:24.963Z,102151.02
2018-12-27T04:57:14.061Z,102138.67
2018-12-27T05:00:03.132Z,102138.22
2018-12-27T05:02:52.200Z,102137.14
2018-12-27T05:05:41.260Z,102141.66
2018-12-27T05:08:30.319Z,102144.02
2018-12-27T05:11:19.384Z,102139.00
2018-12-27T05:14:08.450Z,102139.64
2018-12-27T05:16:57.540Z,102136.64
2018-12-27T05:19:46.584Z,102137.77
2018-12-27T05:22:35.921Z,102138.08
2018-12-27T05:25:24.980Z,102130.02
2018-12-27T05:28:14.045Z,102126.29
2018-12-27T05:31:03.121Z,102122.75
2018-12-27T05:33:52.331Z,102124.81
2018-12-27T05:36:41.347Z,102131.34
2018-12-27T05:39:30.407Z,102124.55
2018-12-27T05:42:19.472Z,102132.71
2018-12-27T05:45:08.579Z,102136.55
2018-12-27T05:47:57.632Z,102142.23
2018-12-27T05:50:46.742Z,102136.48
2018-12-27T05:53:35.799Z,102134.31
2018-12-27T05:56:24.853Z,102143.25
2018-12-27T05:59:13.969Z,102147.76
2018-12-27T06:02:02.990Z,102145.48
2018-12-27T06:04:52.195Z,102152.00
2018-12-27T06:07:41.272Z,102157.91
2018-12-27T06:10:30.338Z,102152.32
2018-12-27T06:13:19.397Z,102153.09
2018-12-27T06:16:00.987Z,102154.73
2018-12-27T06:18:50.071Z,102153.58
2018-12-27T06:21:39.170Z,102152.30
2018-12-27T06:24:28.232Z,102155.77
2018-12-27T06:27:17.337Z,102156.42
2018-12-27T06:30:06.891Z,102154.91
2018-12-27T06:32:55.955Z,102150.95
2018-12-27T06:35:45.016Z,102150.84
2018-12-27T06:38:34.134Z,102150.31
2018-12-27T06:41:23.193Z,102154.05
2018-12-27T06:44:12.282Z,102146.95
2018-12-27T06:47:01.342Z,102144.50
2018-12-27T06:49:50.409Z,102145.77
2018-12-27T06:52:39.485Z,102140.12
2018-12-27T06:55:28.972Z,102149.20
2018-12-27T06:58:18.050Z,102143.05
2018-12-27T07:01:07.147Z,102146.15
2018-12-27T07:03:56.187Z,102152.69
2018-12-27T07:06:45.276Z,102156.91
2018-12-27T07:09:34.330Z,102156.16
2018-12-27T07:12:23.405Z,102157.95
2018-12-27T07:15:12.475Z,102160.29
2018-12-27T07:17:54.536Z,102159.37
2018-12-27T07:20:43.591Z,102152.66
2018-12-27T07:23:32.957Z,102156.20
2018-12-27T07:26:22.052Z,102156.21
2018-12-27T07:29:11.112Z,102155.92
2018-12-27T07:32:00.166Z,102158.73
2018-12-27T07:34:56.303Z,102155.67
2018-12-27T07:37:40.108Z,102154.75
2018-12-27T07:40:29.251Z,102161.31
2018-12-27T07:43:18.309Z,102163.09
2018-12-27T07:46:10.903Z,102164.33
2018-12-27T07:48:58.167Z,102164.19
2018-12-27T07:51:47.214Z,102159.96
2018-12-27T07:54:17.252Z,102148.26
2018-12-27T07:57:06.306Z,102154.78
2018-12-27T07:59:55.407Z,102149.11
2018-12-27T08:02:44.495Z,102156.30
2018-12-27T08:05:33.552Z,102152.38
2018-12-27T08:08:22.630Z,102158.42
2018-12-27T08:11:11.730Z,102147.38
2018-12-27T08:14:00.790Z,102153.48
2018-12-27T08:16:42.630Z,102153.62
2018-12-27T08:19:31.685Z,102148.94
2018-12-27T08:22:20.741Z,102154.45
2018-12-27T08:25:09.822Z,102145.95
2018-12-27T08:27:58.869Z,102145.03
2018-12-27T08:30:47.931Z,102143.98
2018-12-27T08:33:37.068Z,102139.04
2018-12-27T08:36:26.125Z,102137.08
2018-12-27T08:39:15.178Z,102140.89
2018-12-27T08:42:04.221Z,102138.20
2018-12-27T08:44:53.397Z,102142.75
2018-12-27T08:47:42.467Z,102141.81
2018-12-27T08:50:31.563Z,102147.59
2018-12-27T08:53:01.356Z,102148.52
2018-12-27T08:55:50.505Z,102145.15
2018-12-27T08:58:39.567Z,102149.23
2018-12-27T09:01:28.878Z,102139.70
2018-12-27T09:04:17.946Z,102135.67
2018-12-27T09:07:27.762Z,102130.46
2018-12-27T09:10:16.872Z,102134.05
2018-12-27T09:13:26.538Z,102133.04
2018-12-27T09:16:08.197Z,102122.39
2018-12-27T09:18:57.277Z,102123.17
2018-12-27T09:21:46.351Z,102123.67
2018-12-27T09:24:35.496Z,102125.64
2018-12-27T09:27:24.548Z,102125.78
2018-12-27T09:30:13.589Z,102116.27
2018-12-27T09:33:02.646Z,102121.23
2018-12-27T09:35:51.753Z,102121.13
2018-12-27T09:38:40.796Z,102119.62
2018-12-27T09:41:29.856Z,102110.55
2018-12-27T09:44:18.916Z,102109.47
2018-12-27T09:47:07.997Z,102113.48
2018-12-27T09:49:57.068Z,102118.47
2018-12-27T09:52:46.141Z,102116.94
2018-12-27T09:55:35.203Z,102115.04
2018-12-27T09:58:24.376Z,102116.12
2018-12-27T10:01:13.436Z,102115.98
2018-12-27T10:04:02.513Z,102115.69
2018-12-27T10:06:51.559Z,102113.30
2018-12-27T10:09:40.657Z,102101.27
2018-12-27T10:12:29.722Z,102103.70
2018-12-27T10:15:18.809Z,102092.28
2018-12-27T10:18:00.795Z,102096.11
2018-12-27T10:20:49.870Z,102095.16
2018-12-27T10:23:38.968Z,102092.47
2018-12-27T10:26:28.016Z,102092.69
2018-12-27T10:29:17.083Z,102086.52
2018-12-27T10:32:06.263Z,102086.36
2018-12-27T10:34:55.307Z,102078.30
2018-12-27T10:37:44.701Z,102069.76
2018-12-27T10:40:33.756Z,102062.48
2018-12-27T10:43:22.828Z,102058.09
2018-12-27T10:46:11.901Z,102056.55
2018-12-27T10:49:00.957Z,102053.79
2018-12-27T10:51:50.041Z,102047.88
2018-12-27T10:54:39.198Z,102048.44
2018-12-27T10:57:28.246Z,102037.47
2018-12-27T11:03:12.869Z,102036.42
2018-12-27T11:06:01.954Z,102031.79
2018-12-27T11:08:51.011Z,102043.64
2018-12-27T11:11:40.418Z,102038.38
2018-12-27T11:14:29.599Z,102030.04
2018-12-27T11:17:18.652Z,102027.53
2018-12-27T11:20:00.211Z,102027.87
2018-12-27T11:22:49.308Z,102021.03
2018-12-27T11:25:19.091Z,102013.13
2018-12-27T11:28:08.417Z,102017.79
2018-12-27T11:30:58.137Z,102012.80
2018-12-27T11:33:48.311Z,102006.25
2018-12-27T11:36:18.117Z,102006.01
2018-12-27T11:39:07.195Z,102003.92
2018-12-27T11:41:56.326Z,101996.98
2018-12-27T11:44:45.458Z,101993.92
2018-12-27T11:47:34.563Z,101982.55
2018-12-27T11:50:23.675Z,101973.59
2018-12-27T11:53:13.036Z,101978.77
2018-12-27T11:56:02.112Z,101968.11
2018-12-27T11:58:51.218Z,101967.84
2018-12-27T12:01:40.313Z,101967.95
2018-12-27T12:04:29.375Z,101955.48
2018-12-27T12:07:18.474Z,101963.67
2018-12-27T12:13:36.601Z,101964.02
2018-12-27T12:16:25.690Z,101949.98
2018-12-27T12:19:08.226Z,101954.78
2018-12-27T12:21:57.311Z,101949.14
2018-12-27T12:24:46.380Z,101941.29
2018-12-27T12:27:35.570Z,101937.58
2018-12-27T12:30:25.017Z,101932.05
2018-12-27T12:33:14.204Z,101923.67
2018-12-27T12:36:10.370Z,101927.74
2018-12-27T12:38:54.079Z,101928.52
2018-12-27T12:41:43.163Z,101918.24
2018-12-27T12:44:32.268Z,101916.33
2018-12-27T12:47:21.327Z,101916.44
2018-12-27T12:50:10.478Z,101923.47
2018-12-27T12:52:59.552Z,101923.45
2018-12-27T12:55:48.677Z,101923.36
2018-12-27T12:58:37.751Z,101934.47
2018-12-27T13:01:26.869Z,101926.50
2018-12-27T13:04:15.954Z,101929.75
2018-12-27T13:07:05.326Z,101938.52
2018-12-27T13:09:54.397Z,101949.18
2018-12-27T13:12:43.753Z,101949.85
2018-12-27T13:15:32.837Z,101944.12
2018-12-27T13:18:14.906Z,101942.19
2018-12-27T13:21:03.957Z,101950.00
2018-12-27T13:23:53.126Z,101946.09
2018-12-27T13:26:42.260Z,101946.77
2018-12-27T13:29:31.335Z,101955.81
2018-12-27T13:32:22.586Z,101952.70
2018-12-27T13:35:11.664Z,101953.38
2018-12-27T13:38:00.749Z,101948.47
2018-12-27T13:40:49.832Z,101952.09
2018-12-27T13:43:38.885Z,101951.89
2018-12-27T13:46:27.927Z,101951.38
2018-12-27T13:49:17.041Z,101951.31
2018-12-27T13:52:06.135Z,101954.63
2018-12-27T13:54:55.195Z,101953.23
2018-12-27T13:57:46.613Z,101956.86
2018-12-27T14:00:16.400Z,101952.14
2018-12-27T14:03:05.478Z,101956.23
2018-12-27T14:05:54.516Z,101955.45
2018-12-27T14:08:43.609Z,101954.91
2018-12-27T14:11:32.770Z,101960.17
2018-12-27T14:14:21.907Z,101949.84
2018-12-27T14:17:11.003Z,101944.23
2018-12-27T14:19:53.996Z,101944.08
2018-12-27T14:22:43.040Z,101940.70
2018-12-27T14:25:32.107Z,101945.34
2018-12-27T14:28:21.198Z,101943.23
2018-12-27T14:31:10.270Z,101941.72
2018-12-27T14:33:59.409Z,101947.22
2018-12-27T14:36:48.508Z,101952.30
2018-12-27T14:39:37.582Z,101950.38
2018-12-27T14:42:26.670Z,101955.37
2018-12-27T14:45:15.785Z,101956.66
2018-12-27T14:48:04.841Z,101953.84
2018-12-27T14:50:53.939Z,101951.97
2018-12-27T14:53:43.119Z,101953.28
2018-12-27T14:56:32.181Z,101953.94
2018-12-27T14:59:32.940Z,101952.33
2018-12-27T15:02:12.092Z,101948.75
2018-12-27T15:05:01.152Z,101951.19
2018-12-27T15:07:50.298Z,101949.73
2018-12-27T15:10:39.739Z,101955.70
2018-12-27T15:13:28.821Z,101956.59
2018-12-27T15:16:17.923Z,101954.97
2018-12-27T15:18:59.784Z,101937.33
2018-12-27T15:21:48.863Z,101927.83
2018-12-27T15:24:37.923Z,101924.27
2018-12-27T15:27:26.991Z,101927.28
2018-12-27T15:30:16.044Z,101930.56
2018-12-27T15:33:05.196Z,101934.18
2018-12-27T15:35:54.281Z,101924.63
2018-12-27T15:38:43.381Z,101922.68
2018-12-27T15:41:32.469Z,101922.55
2018-12-27T15:44:21.630Z,101925.81
2018-12-27T15:47:10.758Z,101930.91
2018-12-27T15:49:59.799Z,101928.89
2018-12-27T15:52:48.880Z,101929.73
2018-12-27T15:55:37.937Z,101930.28
2018-12-27T15:58:27.000Z,101936.67
2018-12-27T16:01:16.043Z,101940.00
2018-12-27T16:04:05.202Z,101935.91
2018-12-27T16:06:54.266Z,101937.42
2018-12-27T16:09:43.575Z,101937.98
2018-12-27T16:12:32.665Z,101938.93
2018-12-27T16:15:21.713Z,101944.18
2018-12-27T16:18:10.803Z,101941.55
2018-12-27T16:20:51.027Z,101938.42
2018-12-27T16:23:40.119Z,101930.92
2018-12-27T16:26:29.164Z,101932.24
2018-12-27T16:29:18.343Z,101933.04
2018-12-27T16:32:07.371Z,101937.28
2018-12-27T16:34:56.454Z,101941.62
2018-12-27T16:37:45.531Z,101938.45
2018-12-27T16:40:34.598Z,101934.20
2018-12-27T16:43:23.791Z,101938.25
2018-12-27T16:46:12.711Z,101935.78
2018-12-27T16:49:01.464Z,101936.28
2018-12-27T16:51:50.926Z,101924.63
2018-12-27T16:54:40.000Z,101926.52
2018-12-27T16:57:29.115Z,101926.03
2018-12-27T17:00:18.297Z,101933.00
2018-12-27T17:03:07.478Z,101939.05
2018-12-27T17:05:56.558Z,101938.84
2018-12-27T17:08:46.395Z,101942.69
2018-12-27T17:11:36.657Z,101945.73
2018-12-27T17:14:25.741Z,101946.95
2018-12-27T17:17:15.267Z,101945.08
2018-12-27T17:19:56.865Z,101950.30
2018-12-27T17:22:46.114Z,101957.52
2018-12-27T17:25:35.176Z,101959.28
2018-12-27T17:28:24.252Z,101953.64
2018-12-27T17:31:13.348Z,101947.14
2018-12-27T17:34:02.515Z,101953.06
2018-12-27T17:37:06.358Z,101950.00
2018-12-27T17:39:42.508Z,101947.44
2018-12-27T17:42:31.587Z,101933.72
2018-12-27T17:45:20.646Z,101934.81
2018-12-27T17:48:09.842Z,101931.73
2018-12-27T17:50:58.892Z,101928.95
2018-12-27T17:53:47.985Z,101942.52
2018-12-27T17:56:37.043Z,101950.66
2018-12-27T17:59:37.965Z,101957.69
2018-12-27T18:02:16.903Z,101966.70
2018-12-27T18:05:06.174Z,101958.99
2018-12-27T18:07:55.239Z,101953.47
2018-12-27T18:10:44.312Z,101947.66
2018-12-27T18:13:33.378Z,101946.36
2018-12-27T18:16:22.443Z,101956.44
2018-12-27T18:19:11.490Z,101957.02
2018-12-27T18:21:53.435Z,101956.14
2018-12-27T18:24:42.513Z,101961.16
2018-12-27T18:27:31.623Z,101958.77
2018-12-27T18:30:20.680Z,101967.34
2018-12-27T18:33:09.749Z,101960.55
2018-12-27T18:35:58.842Z,101960.55
2018-12-27T18:39:08.702Z,101959.95
2018-12-27T18:41:57.895Z,101965.08
2018-12-27T18:44:47.230Z,101963.68
2018-12-27T18:47:36.327Z,101968.94
2018-12-27T18:50:25.522Z,101962.98
2018-12-27T18:53:14.578Z,101966.75
2018-12-27T18:56:03.663Z,101955.31
2018-12-27T18:58:52.734Z,101950.11
2018-12-27T19:01:41.816Z,101956.31
2018-12-27T19:04:30.969Z,101962.73
2018-12-27T19:07:20.074Z,101978.52
2018-12-27T19:16:21.364Z,101970.64
2018-12-27T19:19:10.436Z,101971.94
2018-12-27T19:21:52.882Z,101975.79
2018-12-27T19:24:42.214Z,101965.81
2018-12-27T19:27:31.339Z,101964.54
2018-12-27T19:30:20.390Z,101952.88
2018-12-27T19:33:09.480Z,101960.81
2018-12-27T19:35:58.939Z,101960.20
2018-12-27T19:38:48.066Z,101967.31
2018-12-27T19:41:37.137Z,101955.58
2018-12-27T19:44:26.236Z,101949.47
2018-12-27T19:47:15.298Z,101956.21
2018-12-27T19:53:19.685Z,101964.03
2018-12-27T19:56:08.747Z,101963.39
2018-12-27T19:58:57.803Z,101957.36
2018-12-27T20:01:28.032Z,101952.25
2018-12-27T20:04:17.134Z,101960.36
2018-12-27T20:07:06.166Z,101968.03
2018-12-27T20:09:55.234Z,101967.31
2018-12-27T20:12:44.362Z,101972.84
2018-12-27T20:15:33.124Z,101972.20
2018-12-27T20:18:22.209Z,101984.32
2018-12-27T20:21:04.096Z,101975.20
2018-12-27T20:23:53.197Z,101965.29
2018-12-27T20:26:42.266Z,101960.80
2018-12-27T20:29:31.341Z,101955.75
2018-12-27T20:32:20.441Z,101956.50
2018-12-27T20:35:09.492Z,101960.55
2018-12-27T20:37:58.584Z,101960.22
2018-12-27T20:40:47.703Z,101962.86
2018-12-27T20:43:36.768Z,101972.78
2018-12-27T20:46:25.835Z,101972.41
2018-12-27T20:49:14.983Z,101965.41
2018-12-27T20:52:04.072Z,101962.45
2018-12-27T20:54:53.205Z,101958.63
2018-12-27T20:57:42.263Z,101958.55
2018-12-27T21:00:31.348Z,101955.36
2018-12-27T21:03:20.478Z,101952.34
2018-12-27T21:06:09.574Z,101943.62
2018-12-27T21:08:58.607Z,101941.94
2018-12-27T21:11:48.009Z,101942.34
2018-12-27T21:14:37.147Z,101943.99
2018-12-27T21:17:26.294Z,101951.16
2018-12-27T21:20:15.389Z,101949.40
2018-12-27T21:22:58.002Z,101948.95
2018-12-27T21:25:47.113Z,101949.55
2018-12-27T21:28:36.251Z,101937.86
2018-12-27T21:31:25.293Z,101942.26
2018-12-27T21:34:14.503Z,101945.97
2018-12-27T21:37:03.672Z,101938.45
2018-12-27T21:39:52.764Z,101927.23
2018-12-27T21:42:41.922Z,101934.00
2018-12-27T21:45:11.722Z,101945.15
2018-12-27T21:48:00.771Z,101943.73
2018-12-27T21:50:49.822Z,101951.26
2018-12-27T21:53:38.932Z,101966.45
2018-12-27T21:56:28.002Z,101961.30
2018-12-27T21:59:17.083Z,101960.16
2018-12-27T22:02:06.411Z,101964.48
2018-12-27T22:04:55.496Z,101964.52
2018-12-27T22:07:44.556Z,101969.94
2018-12-27T22:10:33.602Z,101958.50
2018-12-27T22:13:22.684Z,101967.55
2018-12-27T22:16:11.738Z,101966.66
2018-12-27T22:19:00.868Z,101961.54
2018-12-27T22:21:49.943Z,101949.28
2018-12-27T22:24:31.827Z,101953.58
2018-12-27T22:27:20.919Z,101939.71
2018-12-27T22:30:09.989Z,101947.69
2018-12-27T22:32:59.090Z,101948.58
2018-12-27T22:35:48.259Z,101940.97
2018-12-27T22:38:37.312Z,101940.38
2018-12-27T22:41:26.416Z,101946.26
2018-12-27T22:44:15.589Z,101938.93
2018-12-27T22:47:04.694Z,101943.81
2018-12-27T22:49:53.740Z,101954.98
2018-12-27T22:52:43.002Z,101943.34
2018-12-27T22:55:32.577Z,101952.88
2018-12-27T22:58:21.904Z,101958.09
2018-12-27T23:01:11.044Z,101954.09
2018-12-27T23:03:40.909Z,101952.09
2018-12-27T23:06:30.048Z,101956.08
2018-12-27T23:09:19.186Z,101967.36
2018-12-27T23:12:08.403Z,101961.14
2018-12-27T23:14:57.556Z,101963.39
2018-12-27T23:17:46.634Z,101970.33
2018-12-27T23:20:35.744Z,101978.55
2018-12-27T23:23:18.182Z,101981.31
2018-12-27T23:26:07.562Z,101980.41
2018-12-27T23:28:56.690Z,101986.43
2018-12-27T23:31:45.968Z,101986.03
2018-12-27T23:34:35.040Z,101987.10
2018-12-27T23:37:24.211Z,101987.27
2018-12-27T23:40:13.276Z,101997.80
2018-12-27T23:43:02.452Z,101990.30
2018-12-27T23:45:51.532Z,101989.04
2018-12-27T23:48:40.642Z,101994.98
2018-12-27T23:51:29.730Z,101991.34
2018-12-27T23:54:18.978Z,101995.96
2018-12-27T23:57:08.137Z,101987.55
2018-12-27T23:59:57.236Z,101987.64
